createdAt,value
2023-05-12T00:01:01.900Z,101315.38
2023-05-12T00:03:30.188Z,101325.44
2023-05-12T00:06:06.767Z,101321.38
2023-05-12T00:08:34.851Z,101327.88
2023-05-12T00:11:11.937Z,101329.63
2023-05-12T00:13:40.433Z,101340.63
2023-05-12T00:16:09.244Z,101322.63
2023-05-12T00:18:37.922Z,101331.97
2023-05-12T00:21:08.760Z,101343.94
2023-05-12T00:23:36.976Z,101342.88
2023-05-12T00:26:07.463Z,101344.41
2023-05-12T00:28:36.288Z,101334.91
2023-05-12T00:31:04.714Z,101338.47
2023-05-12T00:33:33.677Z,101349.78
2023-05-12T00:36:04.006Z,101346.94
2023-05-12T00:38:34.251Z,101344.53
2023-05-12T00:41:02.143Z,101348.50
2023-05-12T00:43:30.302Z,101351.47
2023-05-12T00:45:58.585Z,101350.97
2023-05-12T00:48:27.119Z,101349.59
2023-05-12T00:50:55.879Z,101352.25
2023-05-12T00:53:24.531Z,101339.44
2023-05-12T00:55:54.143Z,101339.84
2023-05-12T00:58:22.186Z,101340.41
2023-05-12T01:00:53.655Z,101346.88
2023-05-12T01:03:24.839Z,101344.34
2023-05-12T01:06:26.406Z,101343.50
2023-05-12T01:08:54.966Z,101348.63
2023-05-12T01:11:23.826Z,101345.38
2023-05-12T01:13:52.722Z,101351.88
2023-05-12T01:16:24.402Z,101353.00
2023-05-12T01:18:55.735Z,101346.50
2023-05-12T01:21:24.056Z,101344.00
2023-05-12T01:23:59.902Z,101349.19
2023-05-12T01:26:32.900Z,101342.78
2023-05-12T01:29:05.141Z,101340.38
2023-05-12T01:31:33.848Z,101351.28
2023-05-12T01:34:01.835Z,101350.06
2023-05-12T01:36:29.975Z,101343.91
2023-05-12T01:39:00.702Z,101348.34
2023-05-12T01:41:29.420Z,101350.47
2023-05-12T01:43:59.224Z,101349.13
2023-05-12T01:46:27.570Z,101345.06
2023-05-12T01:48:55.869Z,101346.00
2023-05-12T01:51:23.935Z,101343.56
2023-05-12T01:53:52.020Z,101335.28
2023-05-12T01:56:20.389Z,101342.25
2023-05-12T01:58:48.970Z,101338.59
2023-05-12T02:01:18.806Z,101342.53
2023-05-12T02:03:46.982Z,101346.16
2023-05-12T02:06:15.257Z,101343.88
2023-05-12T02:08:43.528Z,101335.06
2023-05-12T02:11:11.974Z,101342.94
2023-05-12T02:13:40.439Z,101335.81
2023-05-12T02:16:08.746Z,101338.16
2023-05-12T02:18:40.082Z,101336.50
2023-05-12T02:21:08.264Z,101340.00
2023-05-12T02:23:36.759Z,101336.84
2023-05-12T02:26:05.024Z,101343.16
2023-05-12T02:28:33.745Z,101341.72
2023-05-12T02:31:02.021Z,101337.34
2023-05-12T02:33:30.632Z,101332.97
2023-05-12T02:35:58.942Z,101344.25
2023-05-12T02:38:27.988Z,101338.41
2023-05-12T02:40:56.536Z,101335.03
2023-05-12T02:43:24.795Z,101340.97
2023-05-12T02:45:53.130Z,101334.53
2023-05-12T02:48:21.686Z,101343.56
2023-05-12T02:50:49.974Z,101344.41
2023-05-12T02:53:18.074Z,101343.97
2023-05-12T02:55:46.347Z,101346.94
2023-05-12T02:58:14.587Z,101354.78
2023-05-12T03:00:42.655Z,101359.47
2023-05-12T03:03:10.961Z,101360.03
2023-05-12T03:05:39.212Z,101364.66
2023-05-12T03:08:07.836Z,101365.13
2023-05-12T03:10:36.519Z,101364.81
2023-05-12T03:13:04.533Z,101369.44
2023-05-12T03:15:32.748Z,101373.59
2023-05-12T03:18:00.920Z,101374.94
2023-05-12T03:20:28.929Z,101375.94
2023-05-12T03:22:57.088Z,101375.47
2023-05-12T03:25:25.099Z,101376.84
2023-05-12T03:27:53.534Z,101381.00
2023-05-12T03:30:24.617Z,101383.00
2023-05-12T03:32:52.804Z,101384.88
2023-05-12T03:35:21.167Z,101382.59
2023-05-12T03:37:49.160Z,101392.69
2023-05-12T03:40:19.220Z,101385.38
2023-05-12T03:42:47.451Z,101384.75
2023-05-12T03:45:15.928Z,101388.56
2023-05-12T03:47:44.614Z,101392.28
2023-05-12T03:50:13.279Z,101383.44
2023-05-12T03:52:41.955Z,101391.28
2023-05-12T03:55:10.756Z,101383.97
2023-05-12T03:57:38.852Z,101385.84
2023-05-12T04:00:07.644Z,101398.13
2023-05-12T04:02:36.598Z,101388.22
2023-05-12T04:05:08.507Z,101386.66
2023-05-12T04:07:38.927Z,101390.34
2023-05-12T04:10:07.567Z,101398.59
2023-05-12T04:12:35.632Z,101387.94
2023-05-12T04:15:03.994Z,101385.16
2023-05-12T04:17:32.865Z,101391.75
2023-05-12T04:20:01.121Z,101395.69
2023-05-12T04:22:31.966Z,101394.78
2023-05-12T04:25:00.034Z,101399.03
2023-05-12T04:27:30.913Z,101395.19
2023-05-12T04:29:59.003Z,101398.03
2023-05-12T04:32:26.910Z,101391.81
2023-05-12T04:34:57.091Z,101397.56
2023-05-12T04:37:25.023Z,101397.34
2023-05-12T04:39:53.892Z,101395.53
2023-05-12T04:42:21.955Z,101390.06
2023-05-12T04:44:50.386Z,101403.00
2023-05-12T04:47:18.717Z,101396.41
2023-05-12T04:49:47.353Z,101391.06
2023-05-12T04:52:15.832Z,101398.13
2023-05-12T04:54:44.637Z,101396.47
2023-05-12T04:57:12.564Z,101397.69
2023-05-12T04:59:41.559Z,101405.59
2023-05-12T05:02:12.143Z,101399.22
2023-05-12T05:04:44.806Z,101399.38
2023-05-12T05:07:13.030Z,101398.09
2023-05-12T05:09:41.050Z,101399.13
2023-05-12T05:12:09.327Z,101410.22
2023-05-12T05:14:37.394Z,101403.50
2023-05-12T05:17:08.524Z,101411.00
2023-05-12T05:19:50.931Z,101405.84
2023-05-12T05:22:23.774Z,101411.84
2023-05-12T05:24:52.369Z,101415.63
2023-05-12T05:27:21.249Z,101410.19
2023-05-12T05:29:49.716Z,101415.41
2023-05-12T05:32:17.699Z,101421.09
2023-05-12T05:34:45.888Z,101416.16
2023-05-12T05:37:14.040Z,101411.41
2023-05-12T05:39:42.456Z,101423.06
2023-05-12T05:42:12.316Z,101409.88
2023-05-12T05:44:43.991Z,101417.34
2023-05-12T05:47:14.593Z,101419.22
2023-05-12T05:49:43.002Z,101423.84
2023-05-12T05:52:11.137Z,101417.31
2023-05-12T05:54:39.478Z,101418.78
2023-05-12T05:57:10.151Z,101425.22
2023-05-12T05:59:39.125Z,101423.50
2023-05-12T06:02:07.626Z,101423.84
2023-05-12T06:04:36.250Z,101419.16
2023-05-12T06:07:07.234Z,101423.44
2023-05-12T06:09:36.455Z,101420.72
2023-05-12T06:12:04.967Z,101418.44
2023-05-12T06:14:33.012Z,101423.06
2023-05-12T06:17:01.309Z,101406.72
2023-05-12T06:19:31.165Z,101416.84
2023-05-12T06:21:59.803Z,101413.63
2023-05-12T06:24:28.147Z,101415.25
2023-05-12T06:26:56.817Z,101409.19
2023-05-12T06:29:25.030Z,101413.13
2023-05-12T06:31:54.326Z,101408.63
2023-05-12T06:34:22.901Z,101414.09
2023-05-12T06:36:52.130Z,101416.56
2023-05-12T06:39:21.678Z,101417.06
2023-05-12T06:41:49.991Z,101422.81
2023-05-12T06:44:18.689Z,101419.19
2023-05-12T06:46:46.953Z,101420.91
2023-05-12T06:49:14.673Z,101415.31
2023-05-12T06:51:43.122Z,101414.97
2023-05-12T06:54:11.379Z,101424.66
2023-05-12T06:56:39.427Z,101416.28
2023-05-12T06:59:07.926Z,101417.09
2023-05-12T07:01:37.102Z,101422.00
2023-05-12T07:04:05.944Z,101419.84
2023-05-12T07:06:35.837Z,101428.13
2023-05-12T07:09:04.952Z,101428.56
2023-05-12T07:11:33.554Z,101424.56
2023-05-12T07:14:01.754Z,101420.38
2023-05-12T07:16:30.267Z,101418.84
2023-05-12T07:18:58.876Z,101423.00
2023-05-12T07:21:27.780Z,101426.38
2023-05-12T07:23:56.814Z,101416.72
2023-05-12T07:26:24.832Z,101414.44
2023-05-12T07:28:53.917Z,101419.56
2023-05-12T07:31:22.488Z,101414.91
2023-05-12T07:33:50.571Z,101413.44
2023-05-12T07:36:21.322Z,101418.41
2023-05-12T07:38:50.870Z,101414.28
2023-05-12T07:41:19.347Z,101415.03
2023-05-12T07:43:47.575Z,101404.13
2023-05-12T07:46:15.632Z,101408.06
2023-05-12T07:48:44.030Z,101406.81
2023-05-12T07:51:12.119Z,101402.19
2023-05-12T07:53:40.128Z,101404.75
2023-05-12T07:56:08.854Z,101406.25
2023-05-12T07:58:37.490Z,101399.66
2023-05-12T08:01:07.184Z,101404.94
2023-05-12T08:03:39.964Z,101394.22
2023-05-12T08:06:08.303Z,101406.31
2023-05-12T08:08:36.878Z,101402.44
2023-05-12T08:11:05.191Z,101394.00
2023-05-12T08:13:33.801Z,101388.75
2023-05-12T08:16:01.718Z,101399.28
2023-05-12T08:18:29.876Z,101396.25
2023-05-12T08:20:58.879Z,101398.53
2023-05-12T08:23:29.898Z,101386.06
2023-05-12T08:25:59.342Z,101389.28
2023-05-12T08:28:27.370Z,101392.38
2023-05-12T08:30:55.269Z,101383.13
2023-05-12T08:33:24.364Z,101381.63
2023-05-12T08:35:52.627Z,101374.94
2023-05-12T08:38:29.886Z,101381.56
2023-05-12T08:41:07.268Z,101383.31
2023-05-12T08:43:46.813Z,101373.47
2023-05-12T08:46:15.806Z,101382.91
2023-05-12T08:48:46.773Z,101380.81
2023-05-12T08:51:14.941Z,101373.22
2023-05-12T08:53:43.583Z,101365.09
2023-05-12T08:58:46.809Z,101373.81
2023-05-12T09:01:15.341Z,101362.69
2023-05-12T09:03:45.723Z,101364.75
2023-05-12T09:06:13.883Z,101352.72
2023-05-12T09:08:42.241Z,101356.50
2023-05-12T09:11:13.904Z,101359.25
2023-05-12T09:13:56.002Z,101352.31
2023-05-12T09:16:26.014Z,101342.34
2023-05-12T09:18:55.361Z,101345.72
2023-05-12T09:21:23.821Z,101347.44
2023-05-12T09:23:55.910Z,101352.63
2023-05-12T09:26:25.905Z,101341.16
2023-05-12T09:28:56.666Z,101351.41
2023-05-12T09:31:26.453Z,101344.56
2023-05-12T09:33:54.642Z,101346.41
2023-05-12T09:36:24.932Z,101341.91
2023-05-12T09:39:07.708Z,101339.44
2023-05-12T09:41:41.105Z,101340.53
2023-05-12T09:44:10.570Z,101339.50
2023-05-12T09:46:40.153Z,101340.84
2023-05-12T09:49:09.769Z,101327.81
2023-05-12T09:51:38.274Z,101330.25
2023-05-12T09:54:09.481Z,101319.88
2023-05-12T09:56:38.743Z,101327.94
2023-05-12T09:59:07.271Z,101328.63
2023-05-12T10:01:36.289Z,101326.78
2023-05-12T10:04:05.952Z,101331.34
2023-05-12T10:06:38.685Z,101320.59
2023-05-12T10:09:28.447Z,101315.63
2023-05-12T10:11:57.115Z,101320.09
2023-05-12T10:14:25.385Z,101308.63
2023-05-12T10:16:56.792Z,101296.47
2023-05-12T10:19:27.614Z,101298.50
2023-05-12T10:21:58.355Z,101301.75
2023-05-12T10:24:28.056Z,101304.44
2023-05-12T10:26:59.838Z,101302.72
2023-05-12T10:29:30.293Z,101298.88
2023-05-12T10:32:00.033Z,101300.13
2023-05-12T10:34:34.498Z,101300.41
2023-05-12T10:37:08.587Z,101310.03
2023-05-12T10:39:38.473Z,101301.78
2023-05-12T10:42:07.716Z,101300.56
2023-05-12T10:44:37.044Z,101295.66
2023-05-12T10:47:15.017Z,101295.66
2023-05-12T10:49:43.636Z,101293.19
2023-05-12T10:52:13.394Z,101297.44
2023-05-12T10:54:45.901Z,101288.50
2023-05-12T10:57:21.170Z,101287.34
2023-05-12T10:59:54.833Z,101287.66
2023-05-12T11:02:32.615Z,101279.38
2023-05-12T11:05:05.203Z,101285.03
2023-05-12T11:07:35.273Z,101281.06
2023-05-12T11:10:06.499Z,101274.81
2023-05-12T11:12:36.699Z,101271.97
2023-05-12T11:15:07.241Z,101274.59
2023-05-12T11:18:02.801Z,101276.47
2023-05-12T11:20:31.293Z,101263.34
2023-05-12T11:22:59.986Z,101266.97
2023-05-12T11:25:28.748Z,101267.66
2023-05-12T11:27:57.137Z,101267.63
2023-05-12T11:30:26.661Z,101263.47
2023-05-12T11:33:02.614Z,101263.47
2023-05-12T11:35:32.602Z,101271.31
2023-05-12T11:38:03.352Z,101264.72
2023-05-12T11:40:31.626Z,101262.25
2023-05-12T11:43:10.495Z,101268.22
2023-05-12T11:45:38.617Z,101266.34
2023-05-12T11:48:12.606Z,101263.91
2023-05-12T11:50:48.118Z,101255.56
2023-05-12T11:53:19.545Z,101260.63
2023-05-12T11:55:53.402Z,101254.63
2023-05-12T11:58:27.267Z,101261.06
2023-05-12T12:00:55.918Z,101260.13
2023-05-12T12:03:25.637Z,101249.72
2023-05-12T12:06:04.828Z,101256.59
2023-05-12T12:08:34.571Z,101254.97
2023-05-12T12:11:04.713Z,101248.31
2023-05-12T12:13:33.458Z,101248.81
2023-05-12T12:16:01.586Z,101248.03
2023-05-12T12:18:29.748Z,101242.50
2023-05-12T12:20:58.435Z,101247.50
2023-05-12T12:23:27.260Z,101250.25
2023-05-12T12:25:58.598Z,101245.25
2023-05-12T12:28:29.115Z,101243.13
2023-05-12T12:30:57.565Z,101240.50
2023-05-12T12:33:25.792Z,101241.16
2023-05-12T12:35:54.115Z,101234.50
2023-05-12T12:38:22.239Z,101231.34
2023-05-12T12:40:50.311Z,101229.75
2023-05-12T12:43:18.139Z,101226.44
2023-05-12T12:45:46.717Z,101231.72
2023-05-12T12:48:15.515Z,101229.91
2023-05-12T12:50:43.771Z,101223.88
2023-05-12T12:53:11.813Z,101221.59
2023-05-12T12:55:39.921Z,101224.78
2023-05-12T12:58:07.772Z,101236.19
2023-05-12T13:00:37.690Z,101231.75
2023-05-12T13:03:08.271Z,101231.59
2023-05-12T13:05:37.159Z,101238.28
2023-05-12T13:08:05.530Z,101230.91
2023-05-12T13:10:33.696Z,101234.31
2023-05-12T13:13:02.162Z,101235.69
2023-05-12T13:15:32.728Z,101240.31
2023-05-12T13:18:00.963Z,101229.03
2023-05-12T13:20:29.480Z,101232.34
2023-05-12T13:22:59.624Z,101231.22
2023-05-12T13:25:27.667Z,101228.47
2023-05-12T13:27:55.686Z,101231.53
2023-05-12T13:30:25.366Z,101233.13
2023-05-12T13:32:53.496Z,101230.88
2023-05-12T13:35:21.954Z,101223.25
2023-05-12T13:38:00.112Z,101225.47
2023-05-12T13:40:28.478Z,101225.63
2023-05-12T13:42:57.173Z,101220.28
2023-05-12T13:45:26.106Z,101216.84
2023-05-12T13:47:54.443Z,101222.63
2023-05-12T13:50:23.079Z,101226.41
2023-05-12T13:52:51.186Z,101222.53
2023-05-12T13:55:21.757Z,101220.03
2023-05-12T13:57:50.308Z,101222.31
2023-05-12T14:00:19.164Z,101221.91
2023-05-12T14:02:47.267Z,101217.41
2023-05-12T14:05:16.275Z,101220.00
2023-05-12T14:07:44.724Z,101217.81
2023-05-12T14:10:12.993Z,101209.75
2023-05-12T14:12:43.226Z,101210.31
2023-05-12T14:17:48.202Z,101216.97
2023-05-12T14:20:16.834Z,101219.03
2023-05-12T14:22:45.787Z,101216.13
2023-05-12T14:25:17.117Z,101209.19
2023-05-12T14:27:45.780Z,101214.69
2023-05-12T14:30:18.293Z,101207.75
2023-05-12T14:32:46.255Z,101205.59
2023-05-12T14:35:14.314Z,101209.34
2023-05-12T14:37:42.609Z,101215.00
2023-05-12T14:40:12.485Z,101196.81
2023-05-12T14:42:40.844Z,101203.84
2023-05-12T14:45:10.291Z,101209.34
2023-05-12T14:47:42.012Z,101206.44
2023-05-12T14:50:11.029Z,101210.19
2023-05-12T14:52:39.337Z,101212.59
2023-05-12T14:55:12.386Z,101203.38
2023-05-12T14:57:41.511Z,101204.06
2023-05-12T15:00:12.120Z,101204.72
2023-05-12T15:02:41.790Z,101197.66
2023-05-12T15:05:11.962Z,101193.03
2023-05-12T15:07:40.260Z,101202.56
2023-05-12T15:10:08.992Z,101201.53
2023-05-12T15:12:38.996Z,101203.38
2023-05-12T15:15:09.165Z,101217.03
2023-05-12T15:17:39.043Z,101207.03
2023-05-12T15:20:08.449Z,101209.47
2023-05-12T15:22:37.303Z,101205.56
2023-05-12T15:25:05.912Z,101204.91
2023-05-12T15:27:34.224Z,101196.56
2023-05-12T15:30:03.491Z,101199.66
2023-05-12T15:32:32.416Z,101197.44
2023-05-12T15:35:00.451Z,101199.97
2023-05-12T15:37:28.886Z,101196.88
2023-05-12T15:39:56.772Z,101192.56
2023-05-12T15:42:29.977Z,101194.41
2023-05-12T15:45:01.021Z,101201.44
2023-05-12T15:47:29.787Z,101196.31
2023-05-12T15:49:58.485Z,101206.19
2023-05-12T15:52:28.754Z,101204.13
2023-05-12T15:54:56.937Z,101209.28
2023-05-12T15:57:25.197Z,101211.88
2023-05-12T16:00:00.317Z,101223.66
2023-05-12T16:02:29.506Z,101211.16
2023-05-12T16:04:57.628Z,101212.16
2023-05-12T16:07:32.000Z,101203.56
2023-05-12T16:10:00.323Z,101205.69
2023-05-12T16:12:28.714Z,101210.94
2023-05-12T16:14:56.940Z,101214.78
2023-05-12T16:17:28.135Z,101221.75
2023-05-12T16:19:58.618Z,101217.78
2023-05-12T16:22:26.823Z,101215.66
2023-05-12T16:24:56.997Z,101222.75
2023-05-12T16:27:25.575Z,101216.84
2023-05-12T16:29:57.227Z,101221.06
2023-05-12T16:32:25.357Z,101219.88
2023-05-12T16:34:53.593Z,101221.13
2023-05-12T16:37:23.169Z,101216.59
2023-05-12T16:39:51.123Z,101223.00
2023-05-12T16:42:19.425Z,101218.59
2023-05-12T16:44:48.237Z,101222.13
2023-05-12T16:47:19.838Z,101223.16
2023-05-12T16:49:47.875Z,101228.69
2023-05-12T16:52:16.153Z,101230.19
2023-05-12T16:54:44.263Z,101227.72
2023-05-12T16:57:12.294Z,101225.78
2023-05-12T16:59:40.470Z,101222.84
2023-05-12T17:02:08.926Z,101235.19
2023-05-12T17:04:38.058Z,101234.78
2023-05-12T17:07:06.436Z,101235.91
2023-05-12T17:09:34.367Z,101243.38
2023-05-12T17:12:05.383Z,101254.03
2023-05-12T17:14:35.071Z,101240.00
2023-05-12T17:17:03.405Z,101250.00
2023-05-12T17:19:33.835Z,101247.41
2023-05-12T17:22:02.105Z,101258.00
2023-05-12T17:24:30.727Z,101263.38
2023-05-12T17:26:59.927Z,101263.03
2023-05-12T17:29:28.944Z,101274.34
2023-05-12T17:31:57.827Z,101258.69
2023-05-12T17:34:25.920Z,101267.06
2023-05-12T17:36:56.321Z,101272.59
2023-05-12T17:39:24.384Z,101270.09
2023-05-12T17:41:52.623Z,101275.78
2023-05-12T17:44:20.912Z,101270.84
2023-05-12T17:46:49.626Z,101279.69
2023-05-12T17:49:17.727Z,101280.34
2023-05-12T17:51:50.273Z,101283.22
2023-05-12T17:54:18.296Z,101280.78
2023-05-12T17:56:47.803Z,101279.22
2023-05-12T17:59:16.268Z,101289.69
2023-05-12T18:01:44.421Z,101285.34
2023-05-12T18:04:12.995Z,101287.31
2023-05-12T18:06:41.606Z,101284.75
2023-05-12T18:09:10.364Z,101290.69
2023-05-12T18:11:38.679Z,101291.28
2023-05-12T18:14:07.528Z,101289.22
2023-05-12T18:16:38.295Z,101292.16
2023-05-12T18:19:06.768Z,101285.28
2023-05-12T18:21:35.853Z,101299.53
2023-05-12T18:24:05.056Z,101295.56
2023-05-12T18:26:33.138Z,101306.88
2023-05-12T18:29:01.135Z,101296.53
2023-05-12T18:31:29.791Z,101295.41
2023-05-12T18:33:58.006Z,101301.03
2023-05-12T18:36:26.041Z,101302.63
2023-05-12T18:38:54.381Z,101307.03
2023-05-12T18:41:23.613Z,101311.94
2023-05-12T18:43:52.036Z,101307.13
2023-05-12T18:46:22.938Z,101313.88
2023-05-12T18:48:51.384Z,101312.38
2023-05-12T18:51:19.554Z,101309.41
2023-05-12T18:53:48.729Z,101306.91
2023-05-12T18:56:17.310Z,101313.88
2023-05-12T18:58:46.881Z,101307.06
2023-05-12T19:01:15.034Z,101313.59
2023-05-12T19:03:45.492Z,101303.13
2023-05-12T19:06:13.943Z,101306.28
2023-05-12T19:08:56.274Z,101297.78
2023-05-12T19:11:24.950Z,101296.84
2023-05-12T19:13:53.240Z,101304.41
2023-05-12T19:16:24.091Z,101299.09
2023-05-12T19:18:52.208Z,101291.44
2023-05-12T19:21:20.484Z,101281.72
2023-05-12T19:23:49.100Z,101291.91
2023-05-12T19:26:17.403Z,101284.25
2023-05-12T19:28:45.665Z,101288.38
2023-05-12T19:31:14.229Z,101289.81
2023-05-12T19:33:42.469Z,101292.59
2023-05-12T19:36:11.794Z,101283.13
2023-05-12T19:38:43.943Z,101285.28
2023-05-12T19:41:12.254Z,101274.72
2023-05-12T19:43:40.773Z,101277.53
2023-05-12T19:46:09.316Z,101277.84
2023-05-12T19:48:38.189Z,101280.97
2023-05-12T19:51:06.437Z,101274.94
2023-05-12T19:53:35.237Z,101274.06
2023-05-12T19:56:03.717Z,101270.53
2023-05-12T19:58:31.818Z,101270.84
2023-05-12T20:01:00.166Z,101269.47
2023-05-12T20:03:28.670Z,101276.91
2023-05-12T20:05:56.971Z,101282.38
2023-05-12T20:08:25.447Z,101274.28
2023-05-12T20:10:53.738Z,101286.25
2023-05-12T20:13:22.194Z,101280.88
2023-05-12T20:15:50.886Z,101289.41
2023-05-12T20:18:21.954Z,101283.47
2023-05-12T20:20:50.319Z,101292.63
2023-05-12T20:23:18.460Z,101285.94
2023-05-12T20:25:47.320Z,101283.78
2023-05-12T20:28:15.895Z,101287.66
2023-05-12T20:30:47.246Z,101294.97
2023-05-12T20:33:18.708Z,101294.31
2023-05-12T20:35:47.596Z,101293.47
2023-05-12T20:38:16.284Z,101290.69
2023-05-12T20:40:44.638Z,101300.56
2023-05-12T20:43:14.693Z,101305.66
2023-05-12T20:45:43.051Z,101304.28
2023-05-12T20:48:11.883Z,101300.09
2023-05-12T20:50:40.566Z,101299.31
2023-05-12T20:53:09.056Z,101295.09
2023-05-12T20:55:37.103Z,101299.06
2023-05-12T20:58:05.258Z,101304.88
2023-05-12T21:00:33.941Z,101315.06
2023-05-12T21:03:04.087Z,101309.59
2023-05-12T21:05:32.752Z,101316.41
2023-05-12T21:08:02.025Z,101312.75
2023-05-12T21:10:32.589Z,101310.16
2023-05-12T21:13:01.067Z,101310.00
2023-05-12T21:15:29.638Z,101305.41
2023-05-12T21:17:58.463Z,101311.34
2023-05-12T21:20:26.475Z,101311.66
2023-05-12T21:22:57.302Z,101316.72
2023-05-12T21:25:25.609Z,101308.22
2023-05-12T21:27:53.759Z,101314.84
2023-05-12T21:30:22.116Z,101313.91
2023-05-12T21:32:53.340Z,101305.59
2023-05-12T21:35:21.102Z,101312.72
2023-05-12T21:37:49.966Z,101313.69
2023-05-12T21:40:17.973Z,101307.84
2023-05-12T21:42:46.361Z,101306.00
2023-05-12T21:45:15.599Z,101310.03
2023-05-12T21:47:47.869Z,101317.44
2023-05-12T21:50:17.061Z,101305.81
2023-05-12T21:52:45.601Z,101312.19
2023-05-12T21:55:15.158Z,101306.91
2023-05-12T21:57:45.393Z,101310.66
2023-05-12T22:00:20.517Z,101305.44
2023-05-12T22:02:49.677Z,101313.50
2023-05-12T22:05:18.068Z,101311.13
2023-05-12T22:07:46.905Z,101307.75
2023-05-12T22:10:24.167Z,101317.59
2023-05-12T22:12:59.854Z,101314.97
2023-05-12T22:15:31.136Z,101311.53
2023-05-12T22:17:59.234Z,101318.50
2023-05-12T22:20:30.408Z,101311.41
2023-05-12T22:22:58.784Z,101312.47
2023-05-12T22:25:26.829Z,101316.13
2023-05-12T22:27:55.197Z,101309.31
2023-05-12T22:30:32.156Z,101314.13
2023-05-12T22:33:05.932Z,101298.34
2023-05-12T22:35:43.746Z,101310.94
2023-05-12T22:38:14.923Z,101311.03
2023-05-12T22:40:46.804Z,101311.78
2023-05-12T22:43:15.606Z,101300.28
2023-05-12T22:45:51.518Z,101310.47
2023-05-12T22:48:20.823Z,101311.63
2023-05-12T22:50:54.512Z,101317.84
2023-05-12T22:53:22.736Z,101310.94
2023-05-12T22:55:50.783Z,101307.28
2023-05-12T22:58:28.941Z,101314.31
2023-05-12T23:00:56.667Z,101306.31
2023-05-12T23:03:31.185Z,101317.19
2023-05-12T23:06:19.882Z,101306.72
2023-05-12T23:08:48.451Z,101313.03
2023-05-12T23:11:16.605Z,101313.22
2023-05-12T23:13:44.507Z,101312.69
2023-05-12T23:16:12.950Z,101313.50
2023-05-12T23:18:41.260Z,101309.03
2023-05-12T23:21:09.456Z,101310.19
2023-05-12T23:23:40.154Z,101299.81
2023-05-12T23:26:08.301Z,101308.91
2023-05-12T23:28:40.140Z,101308.28
2023-05-12T23:31:11.097Z,101312.84
2023-05-12T23:33:43.151Z,101312.00
2023-05-12T23:36:15.473Z,101309.41
2023-05-12T23:38:43.501Z,101312.09
2023-05-12T23:41:11.723Z,101310.34
2023-05-12T23:43:39.750Z,101307.94
2023-05-12T23:46:07.821Z,101301.88
2023-05-12T23:48:37.740Z,101311.00
2023-05-12T23:51:06.459Z,101313.00
2023-05-12T23:53:34.884Z,101314.66
2023-05-12T23:56:02.833Z,101311.97
2023-05-12T23:58:31.536Z,101307.25
